sensor_id;sensor_type;location;lat;lon;timestamp;pressure;altitude;pressure_sealevel;temperature;humidity
67345;BME280;54230;52.402;6.276;2023-06-22T00:00:00;101970.0;;;20.9;63.8
67345;BME280;54230;52.402;6.276;2023-06-22T00:05:00;101960.0;;;20.9;64.0
67345;BME280;54230;52.402;6.276;2023-06-22T00:10:00;101980.0;;;20.9;64.2
67345;BME280;54230;52.402;6.276;2023-06-22T00:15:00;101970.0;;;20.9;63.6
67345;BME280;54230;52.402;6.276;2023-06-22T00:20:00;101970.0;;;20.9;63.8
67345;BME280;54230;52.402;6.276;2023-06-22T00:25:00;101970.0;;;20.8;64.4
67345;BME280;54230;52.402;6.276;2023-06-22T00:30:00;101960.0;;;20.7;64.0
67345;BME280;54230;52.402;6.276;2023-06-22T00:35:00;101970.0;;;20.7;64.4
67345;BME280;54230;52.402;6.276;2023-06-22T00:40:00;101960.0;;;20.5;64.9
67345;BME280;54230;52.402;6.276;2023-06-22T00:45:00;101950.0;;;20.3;65.8
67345;BME280;54230;52.402;6.276;2023-06-22T00:50:00;101940.0;;;20.3;65.9
67345;BME280;54230;52.402;6.276;2023-06-22T00:55:02;101950.0;;;20.3;66.5
67345;BME280;54230;52.402;6.276;2023-06-22T01:00:00;101950.0;;;20.2;66.8
67345;BME280;54230;52.402;6.276;2023-06-22T01:05:00;101950.0;;;20.2;66.9
67345;BME280;54230;52.402;6.276;2023-06-22T01:10:06;101940.0;;;20.0;67.3
67345;BME280;54230;52.402;6.276;2023-06-22T01:15:05;101940.0;;;20.1;67.4
67345;BME280;54230;52.402;6.276;2023-06-22T01:20:01;101940.0;;;20.0;68.2
67345;BME280;54230;52.402;6.276;2023-06-22T01:25:08;101960.0;;;20.2;68.0
67345;BME280;54230;52.402;6.276;2023-06-22T01:30:02;101960.0;;;20.1;68.2
67345;BME280;54230;52.402;6.276;2023-06-22T01:35:03;101950.0;;;20.1;68.5
67345;BME280;54230;52.402;6.276;2023-06-22T01:40:01;101950.0;;;20.0;69.0
67345;BME280;54230;52.402;6.276;2023-06-22T01:45:01;101940.0;;;20.0;69.1
67345;BME280;54230;52.402;6.276;2023-06-22T01:50:00;101950.0;;;19.9;69.6
67345;BME280;54230;52.402;6.276;2023-06-22T01:55:00;101940.0;;;19.9;69.3
67345;BME280;54230;52.402;6.276;2023-06-22T02:00:02;101940.0;;;19.7;70.2
67345;BME280;54230;52.402;6.276;2023-06-22T02:05:03;101930.0;;;19.7;70.3
67345;BME280;54230;52.402;6.276;2023-06-22T02:10:02;101930.0;;;19.6;70.4
67345;BME280;54230;52.402;6.276;2023-06-22T02:15:01;101940.0;;;19.5;70.7
67345;BME280;54230;52.402;6.276;2023-06-22T02:20:02;101930.0;;;19.5;70.8
67345;BME280;54230;52.402;6.276;2023-06-22T02:25:00;101940.0;;;19.5;71.3
67345;BME280;54230;52.402;6.276;2023-06-22T02:30:00;101930.0;;;19.4;71.9
67345;BME280;54230;52.402;6.276;2023-06-22T02:35:00;101920.0;;;19.3;72.4
67345;BME280;54230;52.402;6.276;2023-06-22T02:40:00;101920.0;;;19.3;72.6
67345;BME280;54230;52.402;6.276;2023-06-22T02:45:00;101920.0;;;19.3;72.2
67345;BME280;54230;52.402;6.276;2023-06-22T02:50:00;101920.0;;;19.3;72.2
67345;BME280;54230;52.402;6.276;2023-06-22T02:55:00;101920.0;;;19.2;72.3
67345;BME280;54230;52.402;6.276;2023-06-22T03:00:02;101930.0;;;19.2;71.8
67345;BME280;54230;52.402;6.276;2023-06-22T03:05:00;101930.0;;;19.3;72.6
67345;BME280;54230;52.402;6.276;2023-06-22T03:10:00;101930.0;;;19.3;72.6
67345;BME280;54230;52.402;6.276;2023-06-22T03:15:00;101930.0;;;19.3;72.7
67345;BME280;54230;52.402;6.276;2023-06-22T03:20:00;101920.0;;;19.2;72.8
67345;BME280;54230;52.402;6.276;2023-06-22T03:25:00;101920.0;;;19.1;73.6
67345;BME280;54230;52.402;6.276;2023-06-22T03:30:00;101920.0;;;19.2;73.1
67345;BME280;54230;52.402;6.276;2023-06-22T03:35:01;101920.0;;;19.1;73.4
67345;BME280;54230;52.402;6.276;2023-06-22T03:40:00;101930.0;;;19.1;73.8
67345;BME280;54230;52.402;6.276;2023-06-22T03:45:00;101930.0;;;19.1;74.2
67345;BME280;54230;52.402;6.276;2023-06-22T03:50:00;101930.0;;;19.2;74.1
67345;BME280;54230;52.402;6.276;2023-06-22T03:55:00;101920.0;;;19.3;74.0
67345;BME280;54230;52.402;6.276;2023-06-22T04:00:00;101910.0;;;19.3;73.9
67345;BME280;54230;52.402;6.276;2023-06-22T04:05:00;101910.0;;;19.2;74.6
67345;BME280;54230;52.402;6.276;2023-06-22T04:10:00;101910.0;;;19.2;74.3
67345;BME280;54230;52.402;6.276;2023-06-22T04:15:00;101910.0;;;19.3;74.1
67345;BME280;54230;52.402;6.276;2023-06-22T04:20:00;101910.0;;;19.2;74.7
67345;BME280;54230;52.402;6.276;2023-06-22T04:25:00;101910.0;;;19.2;75.3
67345;BME280;54230;52.402;6.276;2023-06-22T04:30:01;101910.0;;;19.3;75.2
67345;BME280;54230;52.402;6.276;2023-06-22T04:35:00;101910.0;;;19.3;75.7
67345;BME280;54230;52.402;6.276;2023-06-22T04:40:00;101910.0;;;19.5;75.3
67345;BME280;54230;52.402;6.276;2023-06-22T04:45:00;101900.0;;;19.5;75.3
67345;BME280;54230;52.402;6.276;2023-06-22T04:50:00;101900.0;;;19.6;75.2
67345;BME280;54230;52.402;6.276;2023-06-22T04:55:00;101900.0;;;19.9;74.7
67345;BME280;54230;52.402;6.276;2023-06-22T05:00:01;101900.0;;;20.0;74.5
67345;BME280;54230;52.402;6.276;2023-06-22T05:05:00;101890.0;;;20.2;74.6
67345;BME280;54230;52.402;6.276;2023-06-22T05:10:00;101890.0;;;20.3;73.9
67345;BME280;54230;52.402;6.276;2023-06-22T05:15:00;101900.0;;;20.5;73.7
67345;BME280;54230;52.402;6.276;2023-06-22T05:20:00;101900.0;;;20.7;73.4
67345;BME280;54230;52.402;6.276;2023-06-22T05:25:00;101900.0;;;21.0;73.1
67345;BME280;54230;52.402;6.276;2023-06-22T05:30:00;101900.0;;;21.4;71.7
67345;BME280;54230;52.402;6.276;2023-06-22T05:35:00;101900.0;;;21.6;70.8
67345;BME280;54230;52.402;6.276;2023-06-22T05:40:00;101890.0;;;22.1;69.0
67345;BME280;54230;52.402;6.276;2023-06-22T05:45:00;101890.0;;;22.3;68.3
67345;BME280;54230;52.402;6.276;2023-06-22T05:50:00;101890.0;;;22.5;67.5
67345;BME280;54230;52.402;6.276;2023-06-22T05:55:02;101900.0;;;23.1;64.7
67345;BME280;54230;52.402;6.276;2023-06-22T06:00:00;101900.0;;;23.3;63.6
67345;BME280;54230;52.402;6.276;2023-06-22T06:05:00;101910.0;;;23.9;61.9
67345;BME280;54230;52.402;6.276;2023-06-22T06:10:00;101910.0;;;23.9;60.6
67345;BME280;54230;52.402;6.276;2023-06-22T06:15:00;101910.0;;;23.9;60.3
67345;BME280;54230;52.402;6.276;2023-06-22T06:20:00;101910.0;;;23.8;60.2
67345;BME280;54230;52.402;6.276;2023-06-22T06:25:00;101910.0;;;23.5;60.8
67345;BME280;54230;52.402;6.276;2023-06-22T06:30:00;101900.0;;;23.5;61.5
67345;BME280;54230;52.402;6.276;2023-06-22T06:35:00;101900.0;;;23.6;60.5
67345;BME280;54230;52.402;6.276;2023-06-22T06:40:00;101900.0;;;23.8;61.0
67345;BME280;54230;52.402;6.276;2023-06-22T06:45:00;101900.0;;;23.9;59.8
67345;BME280;54230;52.402;6.276;2023-06-22T06:50:00;101900.0;;;24.0;59.5
67345;BME280;54230;52.402;6.276;2023-06-22T06:55:00;101900.0;;;24.1;58.9
67345;BME280;54230;52.402;6.276;2023-06-22T07:00:00;101900.0;;;24.4;58.2
67345;BME280;54230;52.402;6.276;2023-06-22T07:05:00;101900.0;;;24.6;57.5
67345;BME280;54230;52.402;6.276;2023-06-22T07:10:01;101900.0;;;24.5;56.9
67345;BME280;54230;52.402;6.276;2023-06-22T07:15:02;101890.0;;;24.7;56.8
67345;BME280;54230;52.402;6.276;2023-06-22T07:20:00;101890.0;;;24.8;56.5
67345;BME280;54230;52.402;6.276;2023-06-22T07:25:00;101880.0;;;24.9;56.2
67345;BME280;54230;52.402;6.276;2023-06-22T07:30:00;101870.0;;;25.0;56.0
67345;BME280;54230;52.402;6.276;2023-06-22T07:35:00;101870.0;;;25.5;55.3
67345;BME280;54230;52.402;6.276;2023-06-22T07:40:00;101860.0;;;25.4;54.1
67345;BME280;54230;52.402;6.276;2023-06-22T07:45:02;101860.0;;;25.5;53.9
67345;BME280;54230;52.402;6.276;2023-06-22T07:50:01;101870.0;;;25.6;53.4
67345;BME280;54230;52.402;6.276;2023-06-22T07:55:00;101870.0;;;25.7;53.6
67345;BME280;54230;52.402;6.276;2023-06-22T08:00:01;101860.0;;;25.9;52.8
67345;BME280;54230;52.402;6.276;2023-06-22T08:05:00;101860.0;;;26.0;52.7
67345;BME280;54230;52.402;6.276;2023-06-22T08:10:00;101850.0;;;26.0;52.2
67345;BME280;54230;52.402;6.276;2023-06-22T08:15:00;101850.0;;;26.0;51.9
67345;BME280;54230;52.402;6.276;2023-06-22T08:20:00;101850.0;;;26.1;52.0
67345;BME280;54230;52.402;6.276;2023-06-22T08:25:00;101840.0;;;26.2;52.0
67345;BME280;54230;52.402;6.276;2023-06-22T08:30:01;101840.0;;;26.0;52.0
67345;BME280;54230;52.402;6.276;2023-06-22T08:35:00;101830.0;;;26.0;52.2
67345;BME280;54230;52.402;6.276;2023-06-22T08:40:02;101830.0;;;26.1;52.2
67345;BME280;54230;52.402;6.276;2023-06-22T08:45:00;101820.0;;;26.1;52.0
67345;BME280;54230;52.402;6.276;2023-06-22T08:50:00;101800.0;;;26.2;51.9
67345;BME280;54230;52.402;6.276;2023-06-22T08:55:00;101800.0;;;26.5;51.4
67345;BME280;54230;52.402;6.276;2023-06-22T09:00:00;101790.0;;;26.8;50.7
67345;BME280;54230;52.402;6.276;2023-06-22T09:05:03;101780.0;;;26.9;50.0
67345;BME280;54230;52.402;6.276;2023-06-22T09:10:00;101770.0;;;26.9;49.9
67345;BME280;54230;52.402;6.276;2023-06-22T09:15:01;101770.0;;;26.9;50.1
67345;BME280;54230;52.402;6.276;2023-06-22T09:20:00;101770.0;;;27.1;49.5
67345;BME280;54230;52.402;6.276;2023-06-22T09:25:00;101760.0;;;27.5;48.4
67345;BME280;54230;52.402;6.276;2023-06-22T09:30:00;101770.0;;;27.7;48.2
67345;BME280;54230;52.402;6.276;2023-06-22T09:35:03;101770.0;;;28.0;47.1
67345;BME280;54230;52.402;6.276;2023-06-22T09:40:00;101760.0;;;28.0;46.5
67345;BME280;54230;52.402;6.276;2023-06-22T09:45:00;101770.0;;;27.9;46.6
67345;BME280;54230;52.402;6.276;2023-06-22T09:50:00;101770.0;;;27.9;46.6
67345;BME280;54230;52.402;6.276;2023-06-22T09:55:00;101780.0;;;28.0;45.8
67345;BME280;54230;52.402;6.276;2023-06-22T10:00:00;101760.0;;;28.1;45.9
67345;BME280;54230;52.402;6.276;2023-06-22T10:05:00;101770.0;;;28.3;45.4
67345;BME280;54230;52.402;6.276;2023-06-22T10:10:00;101770.0;;;28.4;45.5
67345;BME280;54230;52.402;6.276;2023-06-22T10:15:00;101760.0;;;28.6;44.6
67345;BME280;54230;52.402;6.276;2023-06-22T10:20:00;101750.0;;;28.7;44.7
67345;BME280;54230;52.402;6.276;2023-06-22T10:25:00;101750.0;;;29.1;44.0
67345;BME280;54230;52.402;6.276;2023-06-22T10:30:00;101750.0;;;29.5;44.8
67345;BME280;54230;52.402;6.276;2023-06-22T10:35:00;101750.0;;;29.8;43.7
67345;BME280;54230;52.402;6.276;2023-06-22T10:40:00;101750.0;;;29.8;41.7
67345;BME280;54230;52.402;6.276;2023-06-22T10:45:00;101760.0;;;29.6;42.4
67345;BME280;54230;52.402;6.276;2023-06-22T10:50:00;101750.0;;;29.3;41.5
67345;BME280;54230;52.402;6.276;2023-06-22T10:55:00;101760.0;;;29.0;42.2
67345;BME280;54230;52.402;6.276;2023-06-22T11:00:00;101760.0;;;29.0;43.6
67345;BME280;54230;52.402;6.276;2023-06-22T11:05:00;101750.0;;;29.0;42.7
67345;BME280;54230;52.402;6.276;2023-06-22T11:10:00;101750.0;;;29.1;43.0
67345;BME280;54230;52.402;6.276;2023-06-22T11:15:01;101750.0;;;29.3;42.8
67345;BME280;54230;52.402;6.276;2023-06-22T11:20:00;101740.0;;;29.7;42.5
67345;BME280;54230;52.402;6.276;2023-06-22T11:25:00;101730.0;;;29.6;41.8
67345;BME280;54230;52.402;6.276;2023-06-22T11:30:00;101730.0;;;29.6;41.6
67345;BME280;54230;52.402;6.276;2023-06-22T11:35:00;101720.0;;;29.7;42.6
67345;BME280;54230;52.402;6.276;2023-06-22T11:40:00;101720.0;;;29.7;42.1
67345;BME280;54230;52.402;6.276;2023-06-22T11:45:00;101710.0;;;29.8;41.4
67345;BME280;54230;52.402;6.276;2023-06-22T11:50:00;101700.0;;;29.9;41.0
67345;BME280;54230;52.402;6.276;2023-06-22T11:55:00;101690.0;;;30.0;40.4
67345;BME280;54230;52.402;6.276;2023-06-22T12:00:01;101690.0;;;30.1;40.8
67345;BME280;54230;52.402;6.276;2023-06-22T12:05:00;101680.0;;;30.1;40.8
67345;BME280;54230;52.402;6.276;2023-06-22T12:10:01;101680.0;;;30.1;40.1
67345;BME280;54230;52.402;6.276;2023-06-22T12:15:00;101670.0;;;29.8;40.6
67345;BME280;54230;52.402;6.276;2023-06-22T12:20:00;101670.0;;;29.5;40.9
67345;BME280;54230;52.402;6.276;2023-06-22T12:25:00;101670.0;;;29.2;41.2
67345;BME280;54230;52.402;6.276;2023-06-22T12:30:00;101670.0;;;29.0;41.4
67345;BME280;54230;52.402;6.276;2023-06-22T12:35:00;101660.0;;;29.0;43.7
67345;BME280;54230;52.402;6.276;2023-06-22T12:40:00;101650.0;;;28.9;43.4
67345;BME280;54230;52.402;6.276;2023-06-22T12:45:00;101650.0;;;29.0;43.0
67345;BME280;54230;52.402;6.276;2023-06-22T12:50:00;101650.0;;;28.9;43.2
67345;BME280;54230;52.402;6.276;2023-06-22T12:55:00;101650.0;;;28.7;44.1
67345;BME280;54230;52.402;6.276;2023-06-22T13:00:00;101640.0;;;28.5;44.4
67345;BME280;54230;52.402;6.276;2023-06-22T13:05:01;101640.0;;;28.3;44.4
67345;BME280;54230;52.402;6.276;2023-06-22T13:10:00;101630.0;;;28.2;44.0
67345;BME280;54230;52.402;6.276;2023-06-22T13:15:00;101630.0;;;28.0;46.0
67345;BME280;54230;52.402;6.276;2023-06-22T13:20:00;101630.0;;;27.8;49.0
67345;BME280;54230;52.402;6.276;2023-06-22T13:25:00;101630.0;;;27.3;49.6
67345;BME280;54230;52.402;6.276;2023-06-22T13:30:00;101630.0;;;27.0;51.4
67345;BME280;54230;52.402;6.276;2023-06-22T13:35:00;101640.0;;;25.9;56.1
67345;BME280;54230;52.402;6.276;2023-06-22T13:40:00;101650.0;;;25.0;60.5
67345;BME280;54230;52.402;6.276;2023-06-22T13:45:00;101650.0;;;25.0;62.4
67345;BME280;54230;52.402;6.276;2023-06-22T13:50:00;101660.0;;;24.2;65.1
67345;BME280;54230;52.402;6.276;2023-06-22T13:55:00;101650.0;;;23.7;68.5
67345;BME280;54230;52.402;6.276;2023-06-22T14:00:00;101620.0;;;24.2;70.5
67345;BME280;54230;52.402;6.276;2023-06-22T14:05:00;101580.0;;;24.6;67.0
67345;BME280;54230;52.402;6.276;2023-06-22T14:10:00;101580.0;;;24.6;62.3
67345;BME280;54230;52.402;6.276;2023-06-22T14:15:00;101590.0;;;24.2;64.1
67345;BME280;54230;52.402;6.276;2023-06-22T14:20:00;101600.0;;;24.2;64.3
67345;BME280;54230;52.402;6.276;2023-06-22T14:25:01;101590.0;;;23.0;66.9
67345;BME280;54230;52.402;6.276;2023-06-22T14:30:00;101590.0;;;22.0;72.0
67345;BME280;54230;52.402;6.276;2023-06-22T14:35:00;101580.0;;;21.8;73.3
67345;BME280;54230;52.402;6.276;2023-06-22T14:40:00;101560.0;;;21.8;73.7
67345;BME280;54230;52.402;6.276;2023-06-22T14:45:00;101560.0;;;22.0;72.2
67345;BME280;54230;52.402;6.276;2023-06-22T14:50:00;101550.0;;;22.3;71.4
67345;BME280;54230;52.402;6.276;2023-06-22T14:55:00;101560.0;;;22.7;69.9
67345;BME280;54230;52.402;6.276;2023-06-22T15:00:00;101560.0;;;23.0;68.5
67345;BME280;54230;52.402;6.276;2023-06-22T15:05:00;101560.0;;;23.2;68.0
67345;BME280;54230;52.402;6.276;2023-06-22T15:10:00;101560.0;;;23.5;67.1
67345;BME280;54230;52.402;6.276;2023-06-22T15:15:00;101540.0;;;23.6;67.1
67345;BME280;54230;52.402;6.276;2023-06-22T15:20:02;101520.0;;;23.5;67.3
67345;BME280;54230;52.402;6.276;2023-06-22T15:25:00;101510.0;;;23.4;68.9
67345;BME280;54230;52.402;6.276;2023-06-22T15:30:00;101510.0;;;23.1;69.8
67345;BME280;54230;52.402;6.276;2023-06-22T15:35:00;101520.0;;;23.0;70.1
67345;BME280;54230;52.402;6.276;2023-06-22T15:40:00;101520.0;;;23.1;69.7
67345;BME280;54230;52.402;6.276;2023-06-22T15:45:00;101520.0;;;23.0;67.3
67345;BME280;54230;52.402;6.276;2023-06-22T15:50:00;101530.0;;;23.1;67.1
67345;BME280;54230;52.402;6.276;2023-06-22T15:55:00;101530.0;;;23.4;66.7
67345;BME280;54230;52.402;6.276;2023-06-22T16:00:00;101530.0;;;23.4;67.2
67345;BME280;54230;52.402;6.276;2023-06-22T16:05:00;101520.0;;;23.5;68.1
67345;BME280;54230;52.402;6.276;2023-06-22T16:10:00;101510.0;;;22.5;72.4
67345;BME280;54230;52.402;6.276;2023-06-22T16:15:00;101500.0;;;22.2;75.2
67345;BME280;54230;52.402;6.276;2023-06-22T16:20:00;101500.0;;;22.2;75.5
67345;BME280;54230;52.402;6.276;2023-06-22T16:25:00;101490.0;;;22.0;77.1
67345;BME280;54230;52.402;6.276;2023-06-22T16:30:00;101490.0;;;21.8;78.2
67345;BME280;54230;52.402;6.276;2023-06-22T16:35:00;101470.0;;;21.8;78.9
67345;BME280;54230;52.402;6.276;2023-06-22T16:40:00;101460.0;;;21.8;78.7
67345;BME280;54230;52.402;6.276;2023-06-22T16:45:00;101460.0;;;21.5;79.8
67345;BME280;54230;52.402;6.276;2023-06-22T16:50:00;101460.0;;;21.2;80.3
67345;BME280;54230;52.402;6.276;2023-06-22T16:55:00;101460.0;;;21.1;80.5
67345;BME280;54230;52.402;6.276;2023-06-22T17:00:00;101480.0;;;20.8;81.8
67345;BME280;54230;52.402;6.276;2023-06-22T17:05:01;101490.0;;;20.5;82.9
67345;BME280;54230;52.402;6.276;2023-06-22T17:10:00;101490.0;;;20.4;84.1
67345;BME280;54230;52.402;6.276;2023-06-22T17:15:01;101500.0;;;20.3;84.9
67345;BME280;54230;52.402;6.276;2023-06-22T17:20:00;101520.0;;;20.2;85.8
67345;BME280;54230;52.402;6.276;2023-06-22T17:25:01;101530.0;;;20.3;86.7
67345;BME280;54230;52.402;6.276;2023-06-22T17:30:04;101550.0;;;20.4;87.6
67345;BME280;54230;52.402;6.276;2023-06-22T17:35:01;101550.0;;;20.3;87.9
67345;BME280;54230;52.402;6.276;2023-06-22T17:40:00;101560.0;;;20.4;88.2
67345;BME280;54230;52.402;6.276;2023-06-22T17:45:00;101560.0;;;20.4;88.3
67345;BME280;54230;52.402;6.276;2023-06-22T17:50:04;101550.0;;;20.3;88.2
67345;BME280;54230;52.402;6.276;2023-06-22T17:55:01;101550.0;;;20.4;unknown
67345;BME280;54230;52.402;6.276;2023-06-22T18:00:01;101550.0;;;20.2;88.5
67345;BME280;54230;52.402;6.276;2023-06-22T18:05:02;101540.0;;;20.0;89.0
67345;BME280;54230;52.402;6.276;2023-06-22T18:10:01;101540.0;;;20.0;89.1
67345;BME280;54230;52.402;6.276;2023-06-22T18:15:01;101530.0;;;19.9;89.5
67345;BME280;54230;52.402;6.276;2023-06-22T18:20:01;101530.0;;;19.8;90.0
67345;BME280;54230;52.402;6.276;2023-06-22T18:25:01;101530.0;;;19.6;89.9
67345;BME280;54230;52.402;6.276;2023-06-22T18:30:00;101520.0;;;19.4;90.2
67345;BME280;54230;52.402;6.276;2023-06-22T18:35:00;101520.0;;;19.2;90.2
67345;BME280;54230;52.402;6.276;2023-06-22T18:40:01;101520.0;;;19.0;90.1
67345;BME280;54230;52.402;6.276;2023-06-22T18:45:00;101520.0;;;19.0;89.5
67345;BME280;54230;52.402;6.276;2023-06-22T18:50:05;101520.0;;;18.9;88.8
67345;BME280;54230;52.402;6.276;2023-06-22T18:55:02;101510.0;;;18.8;89.2
67345;BME280;54230;52.402;6.276;2023-06-22T19:00:01;101520.0;;;18.7;89.2
67345;BME280;54230;52.402;6.276;2023-06-22T19:05:06;101540.0;;;18.7;88.8
67345;BME280;54230;52.402;6.276;2023-06-22T19:15:10;101530.0;;;18.7;88.8
67345;BME280;54230;52.402;6.276;2023-06-22T19:20:02;101540.0;;;18.6;88.6
67345;BME280;54230;52.402;6.276;2023-06-22T19:25:00;101540.0;;;18.6;88.2
67345;BME280;54230;52.402;6.276;2023-06-22T19:30:01;101550.0;;;18.5;88.0
67345;BME280;54230;52.402;6.276;2023-06-22T19:35:01;101560.0;;;18.5;87.8
67345;BME280;54230;52.402;6.276;2023-06-22T19:40:00;101570.0;;;18.4;87.7
67345;BME280;54230;52.402;6.276;2023-06-22T19:45:00;101580.0;;;18.5;87.6
67345;BME280;54230;52.402;6.276;2023-06-22T19:50:02;101580.0;;;18.5;87.6
67345;BME280;54230;52.402;6.276;2023-06-22T19:55:00;101590.0;;;18.4;87.5
67345;BME280;54230;52.402;6.276;2023-06-22T20:00:00;101590.0;;;18.4;87.3
67345;BME280;54230;52.402;6.276;2023-06-22T20:05:04;101590.0;;;18.3;87.4
67345;BME280;54230;52.402;6.276;2023-06-22T20:10:09;101590.0;;;18.2;87.7
67345;BME280;54230;52.402;6.276;2023-06-22T20:20:00;101590.0;;;18.1;88.2
67345;BME280;54230;52.402;6.276;2023-06-22T20:25:00;101600.0;;;18.1;88.4
67345;BME280;54230;52.402;6.276;2023-06-22T20:30:12;101590.0;;;18.1;88.4
67345;BME280;54230;52.402;6.276;2023-06-22T20:35:02;101590.0;;;18.0;88.8
67345;BME280;54230;52.402;6.276;2023-06-22T20:40:00;101580.0;;;18.0;88.8
67345;BME280;54230;52.402;6.276;2023-06-22T20:45:00;101570.0;;;18.1;88.7
67345;BME280;54230;52.402;6.276;2023-06-22T20:50:00;101570.0;;;18.0;88.8
67345;BME280;54230;52.402;6.276;2023-06-22T20:55:00;101580.0;;;18.1;88.8
67345;BME280;54230;52.402;6.276;2023-06-22T21:00:01;101600.0;;;18.1;88.6
67345;BME280;54230;52.402;6.276;2023-06-22T21:05:00;101610.0;;;18.2;88.5
67345;BME280;54230;52.402;6.276;2023-06-22T21:10:00;101630.0;;;18.2;88.4
67345;BME280;54230;52.402;6.276;2023-06-22T21:15:00;101640.0;;;18.2;88.5
67345;BME280;54230;52.402;6.276;2023-06-22T21:20:00;101640.0;;;18.2;88.5
67345;BME280;54230;52.402;6.276;2023-06-22T21:25:04;101650.0;;;18.1;89.0
67345;BME280;54230;52.402;6.276;2023-06-22T21:30:01;101650.0;;;18.0;89.4
67345;BME280;54230;52.402;6.276;2023-06-22T21:35:00;101650.0;;;18.1;89.3
67345;BME280;54230;52.402;6.276;2023-06-22T21:40:00;101650.0;;;18.0;89.7
67345;BME280;54230;52.402;6.276;2023-06-22T21:45:00;101650.0;;;18.0;90.0
67345;BME280;54230;52.402;6.276;2023-06-22T21:50:00;101660.0;;;18.0;90.2
67345;BME280;54230;52.402;6.276;2023-06-22T21:55:00;101660.0;;;18.0;90.2
67345;BME280;54230;52.402;6.276;2023-06-22T22:00:00;101660.0;;;18.0;90.3
67345;BME280;54230;52.402;6.276;2023-06-22T22:05:00;101660.0;;;18.0;90.2
67345;BME280;54230;52.402;6.276;2023-06-22T22:10:00;101660.0;;;17.9;90.6
67345;BME280;54230;52.402;6.276;2023-06-22T22:15:00;101660.0;;;17.9;90.7
67345;BME280;54230;52.402;6.276;2023-06-22T22:20:00;101660.0;;;17.8;90.9
67345;BME280;54230;52.402;6.276;2023-06-22T22:25:00;101670.0;;;17.9;91.0
67345;BME280;54230;52.402;6.276;2023-06-22T22:30:00;101680.0;;;17.9;91.2
67345;BME280;54230;52.402;6.276;2023-06-22T22:35:00;101690.0;;;17.9;91.2
67345;BME280;54230;52.402;6.276;2023-06-22T22:40:00;101690.0;;;18.0;91.3
67345;BME280;54230;52.402;6.276;2023-06-22T22:45:00;101700.0;;;18.0;91.5
67345;BME280;54230;52.402;6.276;2023-06-22T22:50:00;101690.0;;;18.0;91.3
67345;BME280;54230;52.402;6.276;2023-06-22T22:55:01;101700.0;;;18.0;91.3
67345;BME280;54230;52.402;6.276;2023-06-22T23:00:00;101690.0;;;18.0;91.3
67345;BME280;54230;52.402;6.276;2023-06-22T23:05:02;101710.0;;;18.0;91.0
67345;BME280;54230;52.402;6.276;2023-06-22T23:10:00;101710.0;;;18.0;90.9
67345;BME280;54230;52.402;6.276;2023-06-22T23:15:00;101710.0;;;18.0;90.6
67345;BME280;54230;52.402;6.276;2023-06-22T23:20:00;101730.0;;;17.9;90.9
67345;BME280;54230;52.402;6.276;2023-06-22T23:25:00;101730.0;;;17.9;90.5
67345;BME280;54230;52.402;6.276;2023-06-22T23:30:00;101740.0;;;18.0;89.9
67345;BME280;54230;52.402;6.276;2023-06-22T23:35:01;101730.0;;;18.0;89.4
67345;BME280;54230;52.402;6.276;2023-06-22T23:40:01;101740.0;;;18.0;89.5
67345;BME280;54230;52.402;6.276;2023-06-22T23:45:00;101760.0;;;18.0;89.1
67345;BME280;54230;52.402;6.276;2023-06-22T23:50:00;101760.0;;;18.1;88.7
67345;BME280;54230;52.402;6.276;2023-06-22T23:55:00;101760.0;;;18.2;88.1
